Wheeler Sack Army Air Field Fort Drum US
ICAO: KGTB
IATA: GTB
Category: Medium
Scheduled Services: No

Elevation: 688 ft
TransAlt. 18000 ft.

Airport Communications:
APP/DEP:128.25
ATIS:126.55
GND:121.9
FORT DRUM FLT FLW:141.025
BASE OPS:120.8
PMSV SACK METRO:63.3
TWR:118.75

KGTB Zoom In..

If you have problems with the map follow the link
https://www.worldairports.se/pages/airport.php?
ICAO=KGTB

Runways:

(A) RW 03 length 10000 ft width 150 ft
ILS 108.50 / hdg 29

(B) RW 08 length 4501 ft width 150 ft
---- / hdg 84

(C) RW 15 length 4998 ft width 150 ft
---- / hdg 147

(D) RW 21 length 10000 ft width 150 ft
ILS 108.50 / hdg 209

(E) RW 26 length 4501 ft width 150 ft
---- / hdg 264

(F) RW 33 length 4998 ft width 150 ft
---- / hdg 327

Location; KGTB
Day. 08 / Time. 04.56 Zulu
* Altimeter: 30.41
* Temperature: -13° c. -8.6°f.
* Wind from: 150° Speed 06 kn.
Dewpoint: -16° c.
Visibility: 9 Statute Miles.
Clouds: Clear (automated report).

KGTB 080456Z AUTO 15006KT 9SM CLR M13/M16 A3041 RMK AO2 SLP312 T11341160 410391136


Wind From 150°
Speed 06 kn.

 
 
jpsmedia worldairports.se 2019   terms of use